Time;durP1;ratioP1;P1;durP2;ratioP2;P2;SDS_P1;SDS_P2;PMS_P1;PMS_P2;Temp;Humidity;BMP_temperature;BMP_pressure;BME280_temperature;BME280_humidity;BME280_pressure;Samples;Min_cycle;Max_cycle;Signal;HPM_P1;HPM_P2
2021/04/01 00:01:14;;;;;;;16.45;7.85;;;16.30;59.80;;;;;;5051123;28;20033;-59
2021/04/01 00:03:42;;;;;;;12.88;6.88;;;16.50;60.40;;;;;;5050492;28;20033;-59
2021/04/01 00:06:08;;;;;;;16.50;7.68;;;16.50;60.60;;;;;;5049691;28;20021;-59
2021/04/01 00:08:34;;;;;;;13.88;7.05;;;16.40;60.50;;;;;;5049640;28;20024;-59
2021/04/01 00:11:00;;;;;;;16.55;7.47;;;16.30;60.30;;;;;;5050125;28;20051;-59
2021/04/01 00:13:26;;;;;;;22.30;8.05;;;16.30;61.20;;;;;;5049341;28;20029;-59
2021/04/01 00:15:56;;;;;;;27.80;7.28;;;16.40;60.90;;;;;;5049037;28;20025;-58
2021/04/01 00:18:21;;;;;;;22.05;8.10;;;16.40;61.10;;;;;;5049570;28;20035;-59
2021/04/01 00:20:47;;;;;;;13.98;7.70;;;16.50;61.00;;;;;;5049638;28;20345;-59
2021/04/01 00:23:13;;;;;;;10.95;7.78;;;16.40;61.50;;;;;;5053284;28;20047;-59
2021/04/01 00:25:39;;;;;;;17.55;8.02;;;16.40;61.60;;;;;;5053050;28;20095;-66
2021/04/01 00:28:05;;;;;;;16.88;7.93;;;16.40;61.80;;;;;;5054809;28;20465;-58
2021/04/01 00:30:31;;;;;;;21.25;9.20;;;16.50;62.20;;;;;;5055184;28;20028;-59
2021/04/01 00:32:57;;;;;;;16.73;8.35;;;16.40;62.10;;;;;;5052805;28;20029;-59
2021/04/01 00:35:23;;;;;;;16.70;7.57;;;16.30;61.80;;;;;;5054498;28;20078;-59
2021/04/01 00:37:49;;;;;;;19.40;8.68;;;16.20;62.30;;;;;;5054123;28;20351;-58
2021/04/01 00:40:15;;;;;;;19.83;8.23;;;16.20;62.40;;;;;;5054634;28;20439;-59
2021/04/01 00:42:40;;;;;;;18.95;7.28;;;16.20;62.80;;;;;;5053597;28;20474;-61
2021/04/01 00:45:13;;;;;;;15.00;8.20;;;16.10;71.50;;;;;;5054166;28;20048;-59
2021/04/01 00:47:50;;;;;;;16.75;8.07;;;16.10;64.20;;;;;;5053287;28;20036;-59
2021/04/01 00:50:23;;;;;;;17.83;7.20;;;16.00;65.50;;;;;;5054847;28;20422;-59
2021/04/01 00:52:49;;;;;;;21.63;7.70;;;15.80;63.10;;;;;;5053645;28;20481;-60
2021/04/01 00:55:15;;;;;;;13.23;7.85;;;15.90;63.00;;;;;;5054426;28;20125;-59
2021/04/01 00:57:44;;;;;;;24.02;8.15;;;15.90;63.40;;;;;;5053686;28;20108;-67
2021/04/01 01:00:14;;;;;;;19.35;8.07;;;15.90;63.80;;;;;;5053068;28;20029;-59
2021/04/01 01:02:41;;;;;;;12.82;7.43;;;15.90;63.80;;;;;;5054332;28;20462;-58
2021/04/01 01:05:09;;;;;;;16.23;7.60;;;15.80;63.90;;;;;;5054315;28;20025;-58
2021/04/01 01:07:35;;;;;;;18.52;7.38;;;15.80;64.10;;;;;;5054214;28;20056;-59
2021/04/01 01:10:01;;;;;;;17.80;7.55;;;15.80;64.50;;;;;;5052174;28;20024;-59
2021/04/01 01:12:27;;;;;;;20.65;8.45;;;15.70;64.20;;;;;;5052951;28;20401;-58
2021/04/01 01:14:52;;;;;;;16.50;8.88;;;15.60;64.50;;;;;;5053665;28;20132;-59
2021/04/01 01:17:18;;;;;;;23.30;8.90;;;15.40;64.90;;;;;;5053946;28;20047;-59
2021/04/01 01:19:53;;;;;;;12.18;8.25;;;15.40;65.30;;;;;;5052165;28;20021;-60
2021/04/01 01:22:20;;;;;;;18.13;8.30;;;15.20;65.40;;;;;;5050045;28;20080;-58
2021/04/01 01:24:46;;;;;;;23.83;8.93;;;15.10;65.90;;;;;;5031824;28;20451;-59
2021/04/01 01:27:13;;;;;;;21.23;8.10;;;15.00;66.40;;;;;;5032686;28;20062;-59
2021/04/01 01:29:39;;;;;;;16.92;7.93;;;14.80;66.60;;;;;;5014744;28;20493;-58
2021/04/01 01:32:05;;;;;;;17.10;7.78;;;15.00;66.90;;;;;;5031635;28;20478;-58
2021/04/01 01:34:35;;;;;;;16.58;8.50;;;15.00;67.60;;;;;;5014900;28;20145;-58
2021/04/01 01:37:02;;;;;;;16.50;8.55;;;15.00;67.10;;;;;;5014158;28;20032;-58
2021/04/01 01:39:28;;;;;;;14.50;8.27;;;15.10;67.20;;;;;;5014461;28;20025;-59
2021/04/01 01:41:53;;;;;;;17.27;7.60;;;15.10;67.10;;;;;;5014059;28;20066;-60
2021/04/01 01:44:19;;;;;;;14.70;7.22;;;15.20;67.00;;;;;;5014200;28;20037;-58
2021/04/01 01:46:45;;;;;;;18.95;8.02;;;15.20;67.20;;;;;;5013972;28;20041;-60
2021/04/01 01:49:11;;;;;;;20.85;7.93;;;15.20;67.50;;;;;;5014804;28;20037;-58
2021/04/01 01:51:36;;;;;;;20.10;8.90;;;15.10;67.80;;;;;;5014749;28;20107;-58
2021/04/01 01:54:02;;;;;;;12.98;7.30;;;15.10;67.40;;;;;;5031478;28;20033;-58
2021/04/01 01:56:28;;;;;;;13.02;7.47;;;15.10;67.80;;;;;;5014477;28;20033;-59
2021/04/01 01:58:56;;;;;;;12.75;7.40;;;15.20;67.60;;;;;;5031781;28;20022;-59
2021/04/01 02:01:23;;;;;;;17.55;9.00;;;15.20;67.60;;;;;;5014314;28;20116;-59
2021/04/01 02:03:49;;;;;;;15.48;7.45;;;15.10;68.30;;;;;;5013691;28;20121;-58
2021/04/01 02:06:18;;;;;;;17.63;7.63;;;15.00;68.30;;;;;;5031857;28;20394;-58
2021/04/01 02:08:44;;;;;;;11.85;7.70;;;15.00;68.60;;;;;;5014037;28;20410;-58
2021/04/01 02:11:10;;;;;;;15.40;8.02;;;14.90;68.50;;;;;;5014234;28;20029;-57
2021/04/01 02:13:36;;;;;;;11.98;7.65;;;14.80;69.10;;;;;;5031713;28;20335;-59
2021/04/01 02:16:02;;;;;;;16.27;8.15;;;14.80;68.90;;;;;;5031376;28;20046;-59
2021/04/01 02:18:29;;;;;;;12.15;8.02;;;14.80;69.40;;;;;;5013798;28;20474;-58
2021/04/01 02:20:58;;;;;;;11.50;7.03;;;14.80;69.40;;;;;;5031260;28;20048;-59
2021/04/01 02:23:29;;;;;;;17.25;7.95;;;14.80;69.70;;;;;;5009577;28;620772;-58
2021/04/01 02:25:56;;;;;;;14.45;8.20;;;14.70;70.00;;;;;;5032289;28;20126;-58
2021/04/01 02:28:24;;;;;;;14.65;7.75;;;14.60;70.20;;;;;;5010282;28;20026;-59
2021/04/01 02:30:52;;;;;;;12.88;7.78;;;14.60;70.60;;;;;;5009568;28;20076;-58
2021/04/01 02:33:22;;;;;;;16.45;7.97;;;14.50;70.90;;;;;;5009860;28;20037;-58
2021/04/01 02:35:48;;;;;;;16.60;8.55;;;14.60;71.00;;;;;;5009594;28;20030;-59
2021/04/01 02:38:14;;;;;;;17.27;8.32;;;14.50;71.00;;;;;;5010364;28;20383;-58
2021/04/01 02:40:40;;;;;;;17.23;7.55;;;14.60;71.40;;;;;;5010208;28;20026;-58
2021/04/01 02:43:09;;;;;;;24.23;7.78;;;14.60;71.00;;;;;;5008830;28;20049;-59
2021/04/01 02:45:35;;;;;;;21.38;9.68;;;14.60;71.40;;;;;;4993554;28;20132;-59
2021/04/01 02:48:01;;;;;;;15.35;8.40;;;14.60;71.20;;;;;;5009663;28;20061;-58
2021/04/01 02:50:26;;;;;;;13.88;7.68;;;14.50;70.70;;;;;;5010047;28;20065;-58
2021/04/01 02:52:52;;;;;;;14.32;7.70;;;14.60;70.80;;;;;;4992901;28;20030;-58
2021/04/01 02:55:19;;;;;;;13.30;7.35;;;14.50;70.80;;;;;;5009969;28;20033;-58
2021/04/01 02:57:45;;;;;;;13.57;7.68;;;14.20;71.30;;;;;;5010023;28;20030;-58
2021/04/01 03:00:15;;;;;;;12.00;7.55;;;14.00;71.70;;;;;;5013201;28;20029;-58
2021/04/01 03:02:46;;;;;;;11.18;7.28;;;13.80;72.40;;;;;;5032023;28;20037;-58
2021/04/01 03:05:12;;;;;;;10.98;6.45;;;13.80;72.90;;;;;;5013606;28;20458;-58
2021/04/01 03:07:41;;;;;;;17.25;6.90;;;13.80;73.20;;;;;;5031923;28;20053;-59
2021/04/01 03:10:10;;;;;;;11.48;7.07;;;13.80;72.50;;;;;;5013547;28;20063;-58
2021/04/01 03:12:36;;;;;;;17.58;6.95;;;13.70;73.00;;;;;;5013922;28;20025;-58
2021/04/01 03:15:02;;;;;;;10.88;7.32;;;13.50;73.40;;;;;;5013486;28;20033;-58
2021/04/01 03:17:28;;;;;;;11.07;7.53;;;13.40;74.00;;;;;;5031421;28;20029;-58
2021/04/01 03:19:53;;;;;;;12.77;7.03;;;13.60;73.80;;;;;;5013084;28;20090;-58
2021/04/01 03:22:19;;;;;;;16.77;7.28;;;13.60;73.80;;;;;;5017493;28;20052;-58
2021/04/01 03:24:45;;;;;;;18.58;7.72;;;13.40;74.50;;;;;;5051316;28;20498;-58
2021/04/01 03:27:10;;;;;;;15.20;7.78;;;13.40;74.70;;;;;;5049450;28;20476;-58
2021/04/01 03:29:36;;;;;;;11.43;6.82;;;13.50;74.60;;;;;;5051505;28;20373;-59
2021/04/01 03:32:03;;;;;;;19.17;7.28;;;13.50;74.40;;;;;;5049395;28;20394;-59
2021/04/01 03:34:28;;;;;;;11.57;6.20;;;13.40;74.80;;;;;;5050105;28;20078;-58
2021/04/01 03:36:55;;;;;;;18.02;7.55;;;13.50;74.70;;;;;;5049401;28;20421;-58
2021/04/01 03:39:21;;;;;;;11.27;6.22;;;13.60;74.70;;;;;;5049946;28;20102;-58
2021/04/01 03:41:47;;;;;;;12.10;7.10;;;13.60;75.00;;;;;;5051225;28;20040;-57
2021/04/01 03:44:13;;;;;;;11.35;6.82;;;13.60;74.50;;;;;;5048996;28;20056;-58
2021/04/01 03:46:38;;;;;;;12.18;7.30;;;13.50;74.90;;;;;;5062201;28;20033;-59
2021/04/01 03:49:05;;;;;;;14.25;7.40;;;13.50;75.30;;;;;;5069105;28;20024;-58
2021/04/01 03:51:30;;;;;;;13.73;7.00;;;13.60;75.10;;;;;;5071193;28;20025;-58
2021/04/01 03:53:56;;;;;;;17.33;8.35;;;13.50;75.50;;;;;;5069049;28;20032;-60
2021/04/01 03:56:22;;;;;;;11.00;8.02;;;13.50;75.50;;;;;;5069595;28;20020;-59
2021/04/01 03:59:03;;;;;;;17.48;8.52;;;13.40;75.70;;;;;;5069685;28;20116;-59
2021/04/01 04:01:59;;;;;;;15.60;7.78;;;13.50;75.50;;;;;;5069782;28;20029;-59
2021/04/01 04:09:55;;;;;;;9.73;6.65;;;13.40;76.10;;;;;;5070863;28;20385;-63
2021/04/01 04:15:02;;;;;;;15.50;6.82;;;13.80;77.30;;;;;;5070354;28;20036;-62
2021/04/01 04:17:28;;;;;;;12.85;6.93;;;13.80;76.00;;;;;;5069585;28;20398;-62
2021/04/01 04:19:54;;;;;;;8.65;5.90;;;13.90;75.50;;;;;;5063631;28;20027;-63
2021/04/01 04:22:19;;;;;;;22.23;9.18;;;13.90;75.20;;;;;;5069398;28;20181;-62
2021/04/01 04:24:45;;;;;;;7.28;5.88;;;13.90;75.00;;;;;;5069469;28;20440;-58
2021/04/01 04:27:35;;;;;;;15.18;8.20;;;13.80;75.30;;;;;;5052046;28;20039;-59
2021/04/01 04:29:59;;;;;;;13.63;6.70;;;13.40;75.90;;;;;;5069874;28;20458;-58
2021/04/01 04:32:29;;;;;;;16.77;7.13;;;13.40;76.60;;;;;;5070712;28;20025;-58
2021/04/01 04:34:55;;;;;;;14.68;7.38;;;13.30;76.80;;;;;;5070231;28;20032;-59
2021/04/01 04:37:21;;;;;;;11.82;7.75;;;13.10;77.60;;;;;;5069468;28;20103;-59
2021/04/01 04:39:47;;;;;;;25.38;7.38;;;13.10;78.30;;;;;;5069187;28;20419;-58
2021/04/01 04:42:13;;;;;;;11.35;6.18;;;13.10;78.10;;;;;;5069898;28;20454;-58
2021/04/01 04:44:39;;;;;;;10.25;6.97;;;13.10;78.10;;;;;;5070105;28;20043;-58
2021/04/01 04:47:05;;;;;;;14.02;6.95;;;13.10;77.90;;;;;;5068596;28;20041;-59
2021/04/01 04:49:31;;;;;;;14.15;7.65;;;12.90;78.40;;;;;;5070645;28;20024;-60
2021/04/01 04:51:56;;;;;;;13.30;6.70;;;12.80;78.90;;;;;;5070195;28;20115;-60
2021/04/01 04:54:22;;;;;;;10.68;6.78;;;12.90;79.00;;;;;;5071004;28;20029;-58
2021/04/01 04:56:50;;;;;;;16.15;6.45;;;12.90;79.30;;;;;;5070784;28;20464;-59
2021/04/01 04:59:39;;;;;;;11.43;7.13;;;13.00;78.90;;;;;;5068173;28;20035;-58
2021/04/01 05:04:59;;;;;;;14.38;6.70;;;12.90;79.10;;;;;;5053387;28;20040;-62
2021/04/01 05:07:25;;;;;;;12.15;7.20;;;13.00;80.10;;;;;;5071746;28;20029;-58
2021/04/01 05:09:50;;;;;;;14.40;6.68;;;13.00;79.20;;;;;;5073620;28;20029;-59
2021/04/01 05:12:16;;;;;;;15.73;7.30;;;13.00;79.70;;;;;;5071768;28;20382;-59
2021/04/01 05:14:42;;;;;;;12.73;7.07;;;12.90;79.70;;;;;;5073184;28;20085;-59
2021/04/01 05:17:08;;;;;;;15.20;6.53;;;13.00;80.10;;;;;;5072824;28;20476;-59
2021/04/01 05:19:36;;;;;;;13.13;7.47;;;13.00;80.00;;;;;;5073575;28;20119;-58
2021/04/01 05:24:31;;;;;;;16.65;7.05;;;13.20;80.20;;;;;;5053576;28;20037;-59
2021/04/01 05:29:28;;;;;;;17.10;7.60;;;13.20;79.60;;;;;;5053324;28;20363;-59
2021/04/01 05:31:53;;;;;;;13.80;7.95;;;13.20;80.00;;;;;;5053355;28;20025;-58
2021/04/01 05:34:20;;;;;;;18.88;7.72;;;13.10;79.70;;;;;;5052406;28;20094;-58
2021/04/01 05:36:46;;;;;;;16.48;7.28;;;13.10;80.00;;;;;;5053235;28;20093;-58
2021/04/01 05:39:16;;;;;;;10.85;7.15;;;13.10;80.40;;;;;;5052538;28;20029;-60
2021/04/01 05:41:45;;;;;;;21.50;7.55;;;12.90;80.80;;;;;;5052966;28;20021;-58
2021/04/01 05:44:27;;;;;;;18.73;8.25;;;12.80;81.50;;;;;;5052070;28;20036;-59
2021/04/01 06:03:51;;;;;;;26.60;9.45;;;13.30;81.20;;;;;;5052441;28;20032;-60
2021/04/01 06:06:28;;;;;;;20.92;7.82;;;13.00;81.70;;;;;;5052255;28;20033;-59
2021/04/01 06:08:59;;;;;;;31.48;9.13;;;13.10;81.80;;;;;;5052615;28;20021;-59
2021/04/01 06:11:25;;;;;;;29.88;10.95;;;13.10;82.50;;;;;;5052655;28;20394;-59
2021/04/01 06:14:10;;;;;;;18.88;7.95;;;13.00;82.40;;;;;;5034151;28;20037;-59
2021/04/01 06:16:43;;;;;;;29.30;8.55;;;13.00;82.80;;;;;;5052437;28;20136;-59
2021/04/01 06:19:17;;;;;;;22.13;9.07;;;13.20;82.80;;;;;;5032477;28;20500;-60
2021/04/01 06:21:45;;;;;;;18.55;7.72;;;13.40;81.70;;;;;;5051762;28;20075;-59
2021/04/01 06:24:27;;;;;;;26.65;8.27;;;13.50;81.30;;;;;;5067602;28;20080;-59
2021/04/01 06:26:58;;;;;;;19.35;8.63;;;13.70;80.60;;;;;;5072414;28;20032;-59
2021/04/01 06:29:27;;;;;;;35.58;9.20;;;13.50;81.00;;;;;;5071570;28;20084;-59
2021/04/01 06:31:55;;;;;;;22.42;8.30;;;13.80;80.60;;;;;;5054362;28;20040;-59
2021/04/01 06:34:40;;;;;;;16.42;8.95;;;14.00;79.70;;;;;;5070231;28;20538;-59
2021/04/01 06:37:20;;;;;;;25.23;9.50;;;14.00;79.10;;;;;;5070125;28;20331;-58
2021/04/01 06:39:46;;;;;;;31.27;8.43;;;13.90;79.70;;;;;;5070765;28;20020;-58
2021/04/01 06:42:25;;;;;;;26.00;8.35;;;14.10;79.60;;;;;;5070920;28;20036;-58
2021/04/01 06:44:54;;;;;;;20.60;9.77;;;14.30;78.50;;;;;;5071334;28;20039;-59
2021/04/01 06:47:24;;;;;;;20.77;10.20;;;14.50;77.30;;;;;;5071164;28;20470;-59
2021/04/01 06:50:05;;;;;;;14.32;8.05;;;14.60;76.70;;;;;;5072060;28;20032;-58
2021/04/01 06:52:34;;;;;;;17.87;8.63;;;14.70;76.20;;;;;;5071974;28;20028;-61
2021/04/01 06:55:11;;;;;;;16.20;8.35;;;14.80;75.90;;;;;;5070368;28;20270;-60
2021/04/01 06:58:05;;;;;;;18.83;9.73;;;15.00;74.70;;;;;;5070291;28;20048;-59
2021/04/01 07:00:58;;;;;;;20.00;9.07;;;14.80;75.00;;;;;;5056991;28;20070;-58
2021/04/01 07:03:22;;;;;;;17.85;9.35;;;14.80;75.50;;;;;;5070511;28;20484;-60
2021/04/01 07:08:24;;;;;;;24.58;8.93;;;15.30;75.90;;;;;;5070606;28;20147;-61
2021/04/01 07:10:59;;;;;;;18.13;9.35;;;15.50;74.90;;;;;;5071463;28;20043;-60
2021/04/01 07:13:35;;;;;;;18.80;9.20;;;15.50;73.50;;;;;;5070694;28;20134;-61
2021/04/01 07:16:13;;;;;;;22.90;9.10;;;15.70;73.50;;;;;;5065919;28;20029;-61
2021/04/01 07:48:56;;;;;;;;;;;15.70;72.50;;;;;;5031521;28;20041;-58
2021/04/01 07:51:40;;;;;;;23.88;10.68;;;15.50;73.10;;;;;;5012229;28;19971;-60
2021/04/01 07:54:10;;;;;;;26.10;10.27;;;15.80;73.00;;;;;;5030377;28;20030;-60
2021/04/01 07:56:53;;;;;;;23.42;10.95;;;16.30;71.80;;;;;;5030917;28;20033;-59
2021/04/01 07:59:32;;;;;;;18.85;10.57;;;16.50;70.30;;;;;;5012025;28;20025;-60
2021/04/01 08:04:43;;;;;;;22.70;9.25;;;16.50;70.40;;;;;;5030804;28;20501;-61
2021/04/01 08:07:14;;;;;;;22.30;9.95;;;16.60;70.30;;;;;;5012626;28;20382;-61
2021/04/01 08:09:47;;;;;;;18.20;9.30;;;16.80;69.80;;;;;;5008508;28;20046;-60
2021/04/01 08:12:26;;;;;;;20.50;10.38;;;16.90;69.30;;;;;;5007812;28;20132;-59
2021/04/01 08:15:22;;;;;;;23.20;11.02;;;16.70;69.20;;;;;;5008572;28;20042;-59
2021/04/01 08:20:51;;;;;;;22.58;9.50;;;17.30;68.80;;;;;;4997625;28;20038;-60
2021/04/01 08:23:27;;;;;;;24.90;10.03;;;17.20;68.50;;;;;;5007887;28;20053;-60
2021/04/01 08:26:23;;;;;;;28.08;11.93;;;17.40;67.60;;;;;;4992034;28;20277;-60
2021/04/01 08:36:49;;;;;;;28.65;10.88;;;17.80;66.90;;;;;;5008542;28;20100;-60
2021/04/01 08:39:16;;;;;;;31.27;11.30;;;18.00;66.30;;;;;;5007859;28;20041;-61
2021/04/01 08:41:41;;;;;;;22.35;10.73;;;18.10;65.80;;;;;;5028840;28;20449;-59
2021/04/01 08:44:30;;;;;;;22.42;11.15;;;18.30;65.50;;;;;;5034518;28;20030;-60
2021/04/01 08:47:16;;;;;;;15.45;10.30;;;18.30;65.50;;;;;;5034241;28;20038;-59
2021/04/01 08:53:30;;;;;;;23.95;10.10;;;18.90;65.30;;;;;;5000115;28;20125;-59
2021/04/01 08:56:25;;;;;;;15.93;9.63;;;19.40;64.80;;;;;;5016272;28;20029;-60
2021/04/01 08:59:22;;;;;;;19.92;10.73;;;19.90;64.00;;;;;;5034593;28;20132;-59
2021/04/01 09:01:55;;;;;;;18.08;9.68;;;20.00;62.20;;;;;;5034391;28;20026;-60
2021/04/01 09:04:26;;;;;;;23.73;10.75;;;20.00;62.70;;;;;;5016258;28;20128;-60
2021/04/01 09:07:03;;;;;;;23.33;10.32;;;20.20;61.60;;;;;;5035390;28;20033;-60
2021/04/01 09:09:34;;;;;;;29.30;11.32;;;;;;;;;;5016339;28;20029;-60
2021/04/01 09:12:16;;;;;;;23.10;11.18;;;20.80;59.90;;;;;;5034305;28;20493;-59
2021/04/01 09:14:49;;;;;;;18.10;10.40;;;20.60;59.10;;;;;;5033970;28;20132;-59
2021/04/01 09:17:16;;;;;;;22.58;11.73;;;19.60;61.50;;;;;;5014872;28;20029;-60
2021/04/01 09:19:44;;;;;;;25.23;11.50;;;20.10;61.20;;;;;;5016302;28;20026;-59
2021/04/01 09:22:29;;;;;;;24.75;11.25;;;20.00;61.00;;;;;;5034033;28;20026;-59
2021/04/01 09:25:03;;;;;;;27.20;12.73;;;20.50;60.50;;;;;;5033866;28;20065;-60
2021/04/01 09:27:30;;;;;;;29.85;11.90;;;20.60;59.80;;;;;;5033111;28;20025;-59
2021/04/01 09:30:05;;;;;;;26.67;12.40;;;20.80;59.90;;;;;;5033795;28;20042;-59
2021/04/01 09:32:34;;;;;;;29.55;12.77;;;21.50;58.20;;;;;;5032427;28;20220;-59
2021/04/01 09:35:02;;;;;;;29.10;13.15;;;21.60;57.40;;;;;;5033646;28;20120;-60
2021/04/01 09:37:28;;;;;;;25.67;13.35;;;22.20;57.20;;;;;;5014529;28;20109;-59
2021/04/01 09:39:55;;;;;;;32.03;12.55;;;22.10;56.40;;;;;;5033093;28;20040;-59
2021/04/01 09:42:21;;;;;;;30.63;12.70;;;22.20;56.70;;;;;;5015663;28;20026;-59
2021/04/01 09:44:58;;;;;;;26.77;12.90;;;22.40;55.60;;;;;;5015651;28;20595;-60
2021/04/01 09:47:29;;;;;;;23.70;11.93;;;22.70;54.60;;;;;;5015249;28;20364;-59
2021/04/01 09:50:03;;;;;;;33.35;12.85;;;22.90;54.50;;;;;;5033377;28;20033;-60
2021/04/01 09:52:29;;;;;;;25.88;12.50;;;22.50;55.50;;;;;;5014339;28;20086;-60
2021/04/01 09:54:59;;;;;;;20.08;12.68;;;23.40;54.00;;;;;;5015856;28;20485;-61
2021/04/01 09:57:54;;;;;;;25.02;13.25;;;23.60;53.70;;;;;;5015494;28;20083;-60
2021/04/01 10:03:23;;;;;;;23.58;12.18;;;24.30;51.90;;;;;;5032884;28;20040;-61
2021/04/01 10:05:52;;;;;;;19.48;12.07;;;24.60;52.30;;;;;;5033286;28;20029;-60
2021/04/01 10:08:29;;;;;;;28.80;13.43;;;24.90;51.20;;;;;;5032699;28;20112;-59
2021/04/01 10:10:58;;;;;;;25.25;13.73;;;25.60;50.30;;;;;;5015493;28;20029;-60
2021/04/01 10:13:25;;;;;;;28.92;13.38;;;25.90;50.30;;;;;;5032169;28;20486;-60
2021/04/01 10:15:53;;;;;;;32.55;14.57;;;25.70;48.80;;;;;;5032491;28;20060;-60
2021/04/01 10:18:28;;;;;;;29.23;12.88;;;25.70;49.20;;;;;;5032320;28;20032;-61
2021/04/01 10:21:01;;;;;;;25.80;14.68;;;26.10;49.00;;;;;;5032367;28;20534;-60
2021/04/01 10:23:27;;;;;;;25.92;13.38;;;26.00;48.10;;;;;;5032294;28;20037;-61
2021/04/01 10:26:07;;;;;;;33.42;15.55;;;26.40;48.30;;;;;;5015613;28;20071;-61
2021/04/01 10:28:42;;;;;;;28.67;16.05;;;26.60;47.10;;;;;;5031841;28;20029;-60
2021/04/01 10:31:12;;;;;;;22.83;14.43;;;27.00;47.40;;;;;;5032555;28;20029;-60
2021/04/01 10:34:13;;;;;;;25.17;14.93;;;27.60;48.60;;;;;;5032691;28;20101;-61
2021/04/01 10:36:40;;;;;;;25.48;15.95;;;27.30;46.30;;;;;;4992066;28;20034;-62
2021/04/01 10:39:09;;;;;;;31.27;15.80;;;27.10;46.10;;;;;;5014687;28;20025;-60
2021/04/01 10:41:47;;;;;;;29.15;15.57;;;27.70;46.20;;;;;;5013872;28;20021;-60
2021/04/01 10:44:14;;;;;;;29.70;16.25;;;28.50;57.50;;;;;;5032782;28;20037;-61
2021/04/01 10:46:49;;;;;;;27.58;16.35;;;28.10;46.80;;;;;;5014132;28;20042;-60
2021/04/01 10:49:19;;;;;;;32.25;16.52;;;28.80;44.90;;;;;;5015330;28;20362;-62
2021/04/01 10:51:53;;;;;;;26.63;16.92;;;29.20;45.40;;;;;;5014755;28;20036;-60
2021/04/01 10:54:19;;;;;;;35.50;19.25;;;28.30;43.70;;;;;;5031968;28;20429;-61
2021/04/01 10:56:46;;;;;;;36.95;18.95;;;28.20;44.40;;;;;;5014215;28;20029;-61
2021/04/01 10:59:12;;;;;;;30.50;17.83;;;28.10;44.00;;;;;;5032272;28;20025;-59
2021/04/01 11:01:41;;;;;;;41.80;19.70;;;28.50;44.50;;;;;;5031347;28;20372;-60
2021/04/01 11:04:12;;;;;;;35.40;19.10;;;28.90;44.50;;;;;;5013512;28;20116;-59
2021/04/01 11:06:40;;;;;;;30.88;18.98;;;28.80;44.10;;;;;;5013169;28;20487;-59
2021/04/01 11:09:10;;;;;;;34.60;17.95;;;29.30;43.50;;;;;;5013885;28;20069;-60
2021/04/01 11:14:26;;;;;;;30.40;17.75;;;30.60;44.10;;;;;;5031465;28;20056;-60
2021/04/01 11:16:53;;;;;;;32.80;20.85;;;31.00;42.60;;;;;;5031800;28;20116;-60
2021/04/01 11:19:20;;;;;;;36.17;20.15;;;30.50;41.40;;;;;;5013595;28;20040;-62
2021/04/01 11:21:48;;;;;;;33.10;19.65;;;29.40;41.90;;;;;;5032558;28;20095;-59
2021/04/01 11:24:26;;;;;;;37.58;19.48;;;29.30;42.00;;;;;;5032260;28;20052;-59
2021/04/01 11:26:52;;;;;;;33.63;15.40;;;28.90;42.40;;;;;;5032076;28;20412;-52
2021/04/01 11:29:20;;;;;;;32.50;14.75;;;29.00;46.30;;;;;;5013681;28;20037;-73
2021/04/01 11:31:46;;;;;;;20.05;12.68;;;29.30;44.40;;;;;;5012160;28;20041;-52
2021/04/01 11:34:14;;;;;;;17.40;9.80;;;29.60;46.80;;;;;;5012751;28;20055;-52
2021/04/01 11:36:43;;;;;;;18.40;7.60;;;29.90;48.90;;;;;;5011708;28;20025;-53
2021/04/01 11:39:26;;;;;;;35.95;20.65;;;30.50;49.60;;;;;;5030640;28;20051;-54
2021/04/01 11:41:53;;;;;;;34.90;19.60;;;29.60;41.60;;;;;;5012655;28;20165;-51
2021/04/01 11:44:19;;;;;;;24.25;14.00;;;28.80;41.70;;;;;;5011958;28;20103;-65
2021/04/01 11:46:45;;;;;;;25.90;16.88;;;29.00;46.60;;;;;;5011666;28;20073;-53
2021/04/01 11:49:11;;;;;;;26.90;14.77;;;29.00;42.50;;;;;;5011957;28;20025;-52
2021/04/01 11:51:38;;;;;;;30.95;15.45;;;29.30;43.80;;;;;;5011784;28;20018;-53
2021/04/01 11:54:06;;;;;;;18.70;12.25;;;29.50;42.90;;;;;;5012334;28;20029;-54
2021/04/01 11:56:38;;;;;;;20.77;13.43;;;29.60;44.50;;;;;;5029615;28;20025;-53
2021/04/01 11:59:13;;;;;;;31.60;15.32;;;29.50;43.40;;;;;;5012687;28;20025;-52
2021/04/01 12:01:52;;;;;;;14.70;9.55;;;29.60;44.70;;;;;;5029277;28;20202;-60
2021/04/01 12:04:19;;;;;;;18.10;10.05;;;30.10;43.70;;;;;;5029794;28;20383;-52
2021/04/01 12:06:46;;;;;;;15.15;9.95;;;30.20;46.20;;;;;;5011753;28;20030;-53
2021/04/01 12:09:12;;;;;;;22.75;11.13;;;30.40;41.00;;;;;;5012235;28;20022;-53
2021/04/01 12:11:43;;;;;;;18.10;10.63;;;29.80;38.50;;;;;;5011458;28;20030;-54
2021/04/01 12:14:09;;;;;;;;;;;30.40;38.00;;;;;;5012606;28;20040;-52
2021/04/01 12:16:35;;;;;;;19.60;10.50;;;30.40;38.00;;;;;;5013760;28;19909;-52
2021/04/01 12:19:02;;;;;;;20.77;11.35;;;30.40;37.20;;;;;;5017186;28;20026;-54
2021/04/01 12:21:28;;;;;;;19.17;7.88;;;30.60;37.60;;;;;;5015335;28;20423;-52
2021/04/01 12:24:01;;;;;;;17.50;10.68;;;30.70;41.90;;;;;;5046629;28;20052;-53
2021/04/01 12:26:31;;;;;;;20.33;12.05;;;31.10;39.40;;;;;;5052186;28;20116;-56
2021/04/01 12:29:02;;;;;;;17.92;10.27;;;30.60;35.50;;;;;;5052506;28;20069;-54
2021/04/01 12:31:39;;;;;;;18.88;10.27;;;30.70;38.60;;;;;;5051996;28;20102;-64
2021/04/01 12:34:05;;;;;;;17.67;9.88;;;31.10;42.20;;;;;;5054331;28;20025;-53
2021/04/01 12:36:35;;;;;;;15.45;8.07;;;31.20;39.30;;;;;;5052438;28;20025;-53
2021/04/01 12:39:06;;;;;;;19.75;10.45;;;31.10;41.20;;;;;;5054696;28;20025;-54
2021/04/01 12:41:34;;;;;;;;;;;30.80;40.70;;;;;;5054164;28;20037;-53
2021/04/01 12:43:59;;;;;;;16.02;9.13;;;30.80;41.10;;;;;;5054370;28;20369;-56
2021/04/01 12:46:40;;;;;;;15.68;10.07;;;30.60;42.00;;;;;;5051853;28;20075;-55
2021/04/01 12:49:06;;;;;;;21.52;12.52;;;30.90;41.20;;;;;;5054097;28;20025;-53
2021/04/01 12:51:42;;;;;;;20.45;10.27;;;30.30;38.90;;;;;;5051706;28;20139;-58
2021/04/01 12:54:16;;;;;;;17.30;10.00;;;30.60;40.00;;;;;;5053165;28;20067;-54
2021/04/01 12:56:48;;;;;;;17.95;10.93;;;30.20;40.90;;;;;;5056910;28;20029;-54
2021/04/01 12:59:22;;;;;;;38.30;14.40;;;30.30;40.70;;;;;;5073486;28;20052;-54
2021/04/01 13:01:54;;;;;;;17.73;10.45;;;30.40;38.60;;;;;;5072441;28;20055;-53
2021/04/01 13:04:22;;;;;;;23.60;12.82;;;30.70;41.30;;;;;;5072053;28;20029;-65
2021/04/01 13:11:48;;;;;;;16.55;10.98;;;30.50;37.50;;;;;;5072949;28;20569;-54
2021/04/01 13:14:14;;;;;;;15.82;8.43;;;30.50;40.20;;;;;;5072147;28;20035;-53
2021/04/01 13:16:39;;;;;;;21.67;12.75;;;30.70;42.50;;;;;;5070462;28;20207;-52
2021/04/01 13:19:07;;;;;;;20.65;11.70;;;30.90;36.80;;;;;;5071396;28;20028;-53
2021/04/01 13:21:51;;;;;;;20.75;10.68;;;30.60;37.40;;;;;;5071062;28;20021;-54
2021/04/01 13:27:07;;;;;;;18.35;11.25;;;30.90;40.80;;;;;;5072653;28;20021;-55
2021/04/01 13:29:35;;;;;;;20.40;10.18;;;30.60;40.20;;;;;;5071361;28;20124;-54
2021/04/01 13:32:15;;;;;;;23.42;9.25;;;30.60;40.70;;;;;;5062654;28;20049;-53
2021/04/01 13:34:59;;;;;;;13.55;7.45;;;30.90;41.70;;;;;;5053373;28;20051;-52
2021/04/01 13:40:01;;;;;;;22.02;10.55;;;30.90;38.40;;;;;;5053045;28;20471;-53
2021/04/01 13:44:55;;;;;;;12.98;9.35;;;30.60;39.60;;;;;;5052765;28;20434;-52
2021/04/01 13:47:23;;;;;;;19.70;8.45;;;30.50;38.40;;;;;;5050740;28;20029;-54
2021/04/01 13:49:52;;;;;;;23.77;10.32;;;30.40;37.40;;;;;;5053953;28;20113;-54
2021/04/01 13:52:29;;;;;;;21.58;10.40;;;30.10;37.30;;;;;;5051881;28;20041;-52
2021/04/01 14:11:13;;;;;;;13.88;4.47;;;29.50;38.60;;;;;;5051586;28;20090;-52
2021/04/01 14:13:38;;;;;;;8.85;4.18;;;29.20;35.40;;;;;;5066896;28;20063;-52
2021/04/01 14:16:04;;;;;;;8.77;3.95;;;29.30;36.90;;;;;;5051040;28;20028;-52
2021/04/01 14:18:31;;;;;;;15.30;4.72;;;29.20;36.00;;;;;;5051570;28;20029;-53
2021/04/01 14:21:00;;;;;;;9.73;4.00;;;29.20;36.80;;;;;;5051255;28;20052;-51
2021/04/01 14:23:27;;;;;;;10.23;3.83;;;29.40;35.90;;;;;;5050184;28;20502;-53
2021/04/01 14:25:55;;;;;;;10.52;4.20;;;29.10;36.70;;;;;;5052682;28;20027;-52
2021/04/01 14:28:21;;;;;;;11.23;3.47;;;29.20;36.20;;;;;;5051156;28;20105;-53
2021/04/01 14:30:47;;;;;;;12.10;3.88;;;29.10;36.50;;;;;;5050105;28;20036;-52
2021/04/01 14:33:15;;;;;;;10.30;3.30;;;29.10;34.90;;;;;;5050545;28;20028;-57
2021/04/01 14:35:43;;;;;;;7.80;3.45;;;28.80;34.60;;;;;;5051628;28;20028;-54
2021/04/01 14:38:11;;;;;;;12.40;3.92;;;28.80;34.70;;;;;;5050956;28;20466;-53
2021/04/01 14:40:48;;;;;;;12.55;3.92;;;28.50;35.70;;;;;;5049014;28;20024;-52
2021/04/01 14:43:20;;;;;;;10.90;3.17;;;28.60;34.70;;;;;;5052018;28;20064;-53
2021/04/01 14:45:47;;;;;;;10.48;4.55;;;28.70;36.00;;;;;;5050294;28;20036;-52
2021/04/01 14:48:13;;;;;;;18.33;4.65;;;28.70;34.60;;;;;;5050620;28;20493;-52